createdAt,value
2022-09-21T00:01:14.953Z,3.25
2022-09-21T00:03:42.114Z,3.60
2022-09-21T00:06:12.363Z,3.85
2022-09-21T00:08:39.170Z,3.30
2022-09-21T00:11:06.529Z,3.80
2022-09-21T00:13:35.034Z,2.95
2022-09-21T00:16:04.466Z,3.42
2022-09-21T00:18:31.162Z,3.97
2022-09-21T00:20:57.739Z,3.15
2022-09-21T00:23:24.426Z,3.58
2022-09-21T00:25:50.984Z,3.55
2022-09-21T00:28:17.698Z,3.58
2022-09-21T00:30:44.246Z,3.92
2022-09-21T00:33:10.811Z,3.75
2022-09-21T00:35:38.404Z,4.30
2022-09-21T00:38:04.943Z,3.42
2022-09-21T00:40:32.280Z,3.95
2022-09-21T00:43:15.698Z,3.35
2022-09-21T00:45:44.324Z,3.30
2022-09-21T00:48:11.042Z,3.45
2022-09-21T00:50:42.525Z,3.33
2022-09-21T00:53:09.184Z,3.30
2022-09-21T00:55:44.243Z,3.50
2022-09-21T00:58:18.039Z,4.13
2022-09-21T01:00:44.889Z,5.30
2022-09-21T01:03:12.896Z,3.60
2022-09-21T01:05:39.472Z,3.47
2022-09-21T01:08:10.029Z,2.88
2022-09-21T01:11:10.549Z,3.20
2022-09-21T01:13:57.714Z,3.47
2022-09-21T01:16:50.268Z,2.97
2022-09-21T01:19:47.477Z,3.17
2022-09-21T01:22:33.017Z,2.90
2022-09-21T01:25:08.998Z,2.47
2022-09-21T01:27:49.333Z,2.60
2022-09-21T01:30:20.265Z,2.83
2022-09-21T01:33:35.188Z,2.90
2022-09-21T01:36:08.663Z,2.78
2022-09-21T01:39:04.457Z,3.10
2022-09-21T01:41:32.794Z,2.80
2022-09-21T01:44:08.908Z,2.90
2022-09-21T01:46:37.057Z,3.10
2022-09-21T01:49:17.759Z,2.42
2022-09-21T01:51:51.703Z,3.67
2022-09-21T01:57:17.349Z,2.53
2022-09-21T01:59:55.511Z,2.80
2022-09-21T02:02:38.216Z,2.88
2022-09-21T02:05:06.442Z,2.75
2022-09-21T02:07:34.716Z,3.03
2022-09-21T02:10:03.005Z,2.75
2022-09-21T02:12:32.910Z,2.88
2022-09-21T02:15:01.592Z,2.83
2022-09-21T02:17:36.384Z,2.80
2022-09-21T02:20:05.828Z,2.33
2022-09-21T02:22:51.646Z,3.03
2022-09-21T02:25:53.850Z,2.95
2022-09-21T02:28:29.827Z,2.33
2022-09-21T02:31:13.786Z,2.42
2022-09-21T02:34:03.467Z,3.03
2022-09-21T02:37:02.277Z,2.45
2022-09-21T02:40:04.329Z,2.92
2022-09-21T02:42:36.103Z,3.22
2022-09-21T02:45:20.738Z,2.92
2022-09-21T02:48:12.166Z,2.60
2022-09-21T02:51:08.450Z,2.80
2022-09-21T02:53:38.521Z,2.88
2022-09-21T02:56:07.569Z,2.80
2022-09-21T02:58:41.066Z,2.72
2022-09-21T03:01:11.425Z,3.22
2022-09-21T03:03:38.247Z,2.67
2022-09-21T03:06:05.048Z,3.17
2022-09-21T03:08:31.748Z,3.25
2022-09-21T03:10:58.301Z,2.85
2022-09-21T03:13:25.270Z,2.92
2022-09-21T03:16:03.143Z,2.70
2022-09-21T03:18:30.921Z,2.40
2022-09-21T03:20:57.611Z,2.70
2022-09-21T03:23:24.996Z,2.65
2022-09-21T03:25:54.784Z,2.80
2022-09-21T03:28:22.417Z,2.92
2022-09-21T03:30:50.365Z,2.88
2022-09-21T03:33:17.727Z,2.47
2022-09-21T03:35:44.846Z,2.60
2022-09-21T03:38:11.921Z,2.83
2022-09-21T03:40:38.570Z,2.42
2022-09-21T03:43:05.236Z,2.65
2022-09-21T03:45:31.837Z,3.25
2022-09-21T03:47:59.883Z,2.92
2022-09-21T03:50:30.810Z,2.92
2022-09-21T03:52:58.064Z,2.55
2022-09-21T03:55:26.370Z,2.92
2022-09-21T03:57:53.134Z,2.63
2022-09-21T04:00:20.227Z,2.45
2022-09-21T04:02:46.818Z,2.60
2022-09-21T04:05:15.897Z,2.80
2022-09-21T04:07:45.645Z,3.42
2022-09-21T04:10:17.946Z,3.63
2022-09-21T04:12:45.340Z,3.05
2022-09-21T04:15:14.240Z,2.92
2022-09-21T04:17:41.581Z,2.63
2022-09-21T04:20:09.049Z,2.90
2022-09-21T04:22:39.962Z,2.55
2022-09-21T04:25:10.778Z,2.45
2022-09-21T04:27:37.405Z,2.28
2022-09-21T04:30:04.911Z,2.58
2022-09-21T04:32:31.516Z,2.75
2022-09-21T04:34:58.186Z,2.95
2022-09-21T04:37:24.848Z,2.63
2022-09-21T04:39:51.700Z,2.53
2022-09-21T04:42:18.594Z,2.40
2022-09-21T04:44:45.185Z,2.80
2022-09-21T04:47:11.846Z,2.55
2022-09-21T04:49:38.574Z,2.67
2022-09-21T04:52:05.911Z,2.45
2022-09-21T04:54:32.483Z,3.72
2022-09-21T04:56:59.243Z,3.08
2022-09-21T04:59:25.967Z,3.10
2022-09-21T05:01:52.710Z,2.45
2022-09-21T05:04:19.377Z,3.03
2022-09-21T05:06:45.943Z,2.50
2022-09-21T05:09:31.364Z,2.40
2022-09-21T05:11:57.939Z,2.92
2022-09-21T05:14:24.605Z,2.60
2022-09-21T05:16:51.379Z,3.08
2022-09-21T05:19:18.061Z,3.42
2022-09-21T05:21:44.680Z,2.83
2022-09-21T05:24:11.285Z,2.30
2022-09-21T05:26:38.128Z,3.17
2022-09-21T05:29:05.171Z,3.55
2022-09-21T05:32:08.095Z,2.67
2022-09-21T05:34:37.413Z,3.72
2022-09-21T05:37:34.470Z,2.78
2022-09-21T05:40:01.277Z,3.30
2022-09-21T05:42:28.108Z,3.10
2022-09-21T05:44:55.350Z,2.70
2022-09-21T05:47:50.159Z,2.80
2022-09-21T05:50:41.453Z,4.30
2022-09-21T05:53:23.093Z,3.00
2022-09-21T05:56:06.912Z,3.30
2022-09-21T05:58:57.051Z,4.57
2022-09-21T06:01:36.005Z,3.65
2022-09-21T06:04:03.537Z,3.63
2022-09-21T06:06:30.140Z,4.38
2022-09-21T06:08:56.705Z,3.75
2022-09-21T06:11:23.660Z,4.60
2022-09-21T06:13:50.229Z,4.35
2022-09-21T06:16:16.843Z,3.88
2022-09-21T06:18:43.500Z,3.70
2022-09-21T06:21:10.291Z,4.75
2022-09-21T06:23:37.730Z,4.97
2022-09-21T06:26:04.801Z,4.60
2022-09-21T06:28:31.458Z,4.35
2022-09-21T06:30:58.686Z,4.53
2022-09-21T06:33:25.607Z,4.85
2022-09-21T06:35:59.409Z,4.85
2022-09-21T06:40:53.821Z,4.05
2022-09-21T06:43:21.214Z,4.28
2022-09-21T06:45:55.679Z,4.50
2022-09-21T06:48:23.334Z,5.10
2022-09-21T06:50:50.705Z,4.07
2022-09-21T06:53:18.399Z,4.57
2022-09-21T06:55:45.479Z,4.90
2022-09-21T06:58:12.510Z,4.90
2022-09-21T07:00:39.502Z,4.95
2022-09-21T07:03:06.499Z,5.22
2022-09-21T07:05:34.407Z,4.45
2022-09-21T07:08:03.862Z,5.00
2022-09-21T07:10:31.011Z,3.80
2022-09-21T07:13:03.641Z,4.38
2022-09-21T07:15:31.130Z,4.07
2022-09-21T07:18:05.961Z,5.07
2022-09-21T07:20:33.155Z,4.55
2022-09-21T07:23:00.326Z,4.40
2022-09-21T07:25:27.359Z,4.18
2022-09-21T07:27:54.393Z,4.50
2022-09-21T07:30:26.364Z,4.35
2022-09-21T07:32:53.507Z,4.38
2022-09-21T07:35:20.493Z,3.92
2022-09-21T07:37:47.507Z,4.68
2022-09-21T07:40:14.559Z,4.82
2022-09-21T07:42:41.732Z,4.93
2022-09-21T07:45:09.065Z,4.05
2022-09-21T07:47:36.055Z,4.25
2022-09-21T07:50:03.086Z,4.10
2022-09-21T07:52:30.063Z,4.40
2022-09-21T07:54:57.094Z,3.60
2022-09-21T07:57:43.175Z,3.80
2022-09-21T08:00:10.446Z,3.80
2022-09-21T08:02:37.814Z,3.13
2022-09-21T08:05:04.977Z,2.63
2022-09-21T08:07:32.618Z,2.10
2022-09-21T08:09:59.781Z,2.50
2022-09-21T08:12:29.576Z,2.20
2022-09-21T08:14:56.574Z,2.45
2022-09-21T08:17:24.646Z,2.15
2022-09-21T08:19:51.723Z,1.75
2022-09-21T08:22:18.835Z,1.90
2022-09-21T08:24:46.287Z,2.00
2022-09-21T08:27:13.312Z,1.75
2022-09-21T08:29:40.433Z,1.58
2022-09-21T08:32:07.520Z,1.60
2022-09-21T08:34:34.493Z,1.85
2022-09-21T08:37:01.535Z,1.60
2022-09-21T08:39:28.869Z,1.90
2022-09-21T08:41:55.839Z,1.98
2022-09-21T08:44:28.487Z,1.50
2022-09-21T08:47:02.254Z,1.80
2022-09-21T08:49:30.228Z,1.60
2022-09-21T08:51:59.156Z,1.50
2022-09-21T08:54:33.346Z,1.20
2022-09-21T08:57:05.468Z,1.63
2022-09-21T08:59:34.304Z,1.85
2022-09-21T09:02:13.745Z,2.50
2022-09-21T09:04:46.661Z,1.50
2022-09-21T09:07:22.845Z,1.58
2022-09-21T09:09:52.841Z,1.48
2022-09-21T09:12:22.661Z,1.88
2022-09-21T09:14:52.648Z,2.08
2022-09-21T09:17:28.900Z,1.80
2022-09-21T09:19:55.876Z,1.30
2022-09-21T09:22:27.209Z,1.58
2022-09-21T09:24:57.320Z,1.27
2022-09-21T09:27:27.082Z,2.00
2022-09-21T09:30:02.017Z,1.50
2022-09-21T09:32:34.686Z,1.20
2022-09-21T09:35:15.902Z,1.00
2022-09-21T09:37:43.374Z,1.20
2022-09-21T09:40:13.401Z,1.25
2022-09-21T09:43:03.962Z,1.30
2022-09-21T09:45:31.814Z,1.75
2022-09-21T09:48:17.551Z,1.17
2022-09-21T09:50:44.855Z,1.05
2022-09-21T09:53:12.818Z,1.52
2022-09-21T09:55:41.031Z,1.10
2022-09-21T09:58:12.773Z,1.27
2022-09-21T10:00:40.622Z,1.00
2022-09-21T10:03:16.633Z,1.48
2022-09-21T10:05:43.714Z,1.17
2022-09-21T10:08:29.437Z,0.95
2022-09-21T10:10:56.612Z,1.35
2022-09-21T10:13:26.525Z,1.45
2022-09-21T10:15:55.493Z,1.30
2022-09-21T10:18:39.257Z,1.63
2022-09-21T10:21:10.626Z,1.30
2022-09-21T10:23:38.682Z,1.30
2022-09-21T10:26:08.570Z,1.00
2022-09-21T10:28:36.151Z,2.28
2022-09-21T10:31:09.185Z,1.20
2022-09-21T10:33:45.816Z,0.90
2022-09-21T10:36:36.150Z,1.40
2022-09-21T10:39:12.350Z,1.50
2022-09-21T10:41:39.488Z,1.00
2022-09-21T10:44:15.785Z,1.20
2022-09-21T10:46:43.067Z,1.73
2022-09-21T10:49:17.751Z,1.60
2022-09-21T10:51:46.293Z,1.33
2022-09-21T10:54:16.708Z,1.10
2022-09-21T10:56:54.581Z,1.20
2022-09-21T10:59:32.108Z,1.70
2022-09-21T11:02:00.532Z,0.93
2022-09-21T11:04:30.165Z,0.90
2022-09-21T11:07:04.620Z,1.33
2022-09-21T11:09:44.313Z,0.90
2022-09-21T11:12:23.156Z,1.17
2022-09-21T11:15:09.080Z,1.30
2022-09-21T11:17:39.380Z,1.73
2022-09-21T11:20:14.622Z,1.50
2022-09-21T11:22:42.109Z,1.23
2022-09-21T11:25:47.499Z,3.75
2022-09-21T11:28:22.132Z,1.40
2022-09-21T11:31:21.533Z,1.05
2022-09-21T11:34:03.665Z,1.27
2022-09-21T11:36:47.209Z,1.30
2022-09-21T11:39:26.295Z,0.93
2022-09-21T11:42:02.899Z,0.82
2022-09-21T11:44:50.183Z,1.23
2022-09-21T11:47:35.994Z,1.20
2022-09-21T11:50:26.444Z,1.05
2022-09-21T11:53:11.165Z,0.88
2022-09-21T11:55:53.770Z,1.02
2022-09-21T11:58:25.850Z,0.98
2022-09-21T12:00:59.103Z,0.80
2022-09-21T12:03:38.215Z,0.93
2022-09-21T12:06:12.756Z,0.60
2022-09-21T12:08:42.534Z,0.95
2022-09-21T12:11:13.947Z,0.98
2022-09-21T12:13:50.469Z,1.02
2022-09-21T12:16:17.518Z,0.80
2022-09-21T12:18:52.321Z,1.00
2022-09-21T12:21:22.625Z,0.80
2022-09-21T12:23:52.380Z,0.88
2022-09-21T12:26:23.804Z,1.00
2022-09-21T12:28:54.219Z,0.80
2022-09-21T12:31:21.740Z,0.70
2022-09-21T12:33:52.713Z,0.80
2022-09-21T12:36:19.938Z,1.00
2022-09-21T12:39:06.527Z,1.08
2022-09-21T12:41:34.315Z,0.88
2022-09-21T12:44:23.177Z,0.95
2022-09-21T12:46:54.283Z,0.98
2022-09-21T12:49:24.513Z,1.25
2022-09-21T12:51:55.039Z,1.17
2022-09-21T12:54:28.186Z,0.82
2022-09-21T12:57:38.115Z,0.73
2022-09-21T13:00:20.246Z,0.73
2022-09-21T13:03:07.156Z,0.90
2022-09-21T13:05:43.599Z,0.70
2022-09-21T13:08:33.213Z,1.05
2022-09-21T13:11:04.505Z,1.00
2022-09-21T13:13:31.496Z,1.10
2022-09-21T13:16:01.779Z,1.10
2022-09-21T13:18:32.503Z,0.98
2022-09-21T13:21:14.891Z,1.00
2022-09-21T13:23:42.223Z,0.75
2022-09-21T13:26:10.442Z,1.00
2022-09-21T13:28:56.610Z,0.88
2022-09-21T13:31:41.150Z,0.68
2022-09-21T13:34:17.868Z,1.23
2022-09-21T13:36:44.989Z,1.23
2022-09-21T13:39:19.874Z,1.10
2022-09-21T13:42:03.740Z,0.90
2022-09-21T13:44:41.865Z,0.98
2022-09-21T13:47:11.231Z,0.63
2022-09-21T13:49:50.757Z,0.90
2022-09-21T13:52:17.397Z,0.60
2022-09-21T13:54:52.404Z,0.93
2022-09-21T13:57:19.386Z,0.75
2022-09-21T13:59:49.198Z,0.60
2022-09-21T14:02:35.398Z,0.57
2022-09-21T14:05:23.396Z,0.93
2022-09-21T14:08:02.226Z,0.68
2022-09-21T14:10:32.019Z,0.68
2022-09-21T14:13:00.712Z,0.70
2022-09-21T14:15:31.642Z,0.90
2022-09-21T14:18:19.079Z,0.77
2022-09-21T14:21:08.241Z,0.80
2022-09-21T14:23:36.728Z,1.00
2022-09-21T14:26:21.640Z,0.88
2022-09-21T14:28:52.031Z,0.88
2022-09-21T14:31:24.690Z,0.93
2022-09-21T14:34:01.318Z,0.80
2022-09-21T14:36:41.673Z,0.88
2022-09-21T14:39:19.238Z,1.00
2022-09-21T14:41:49.446Z,0.65
2022-09-21T14:44:25.502Z,0.80
2022-09-21T14:46:59.580Z,0.75
2022-09-21T14:49:32.779Z,1.58
2022-09-21T14:52:18.291Z,0.90
2022-09-21T14:55:06.148Z,0.82
2022-09-21T14:58:16.968Z,0.52
2022-09-21T15:00:46.253Z,0.60
2022-09-21T15:03:38.926Z,0.47
2022-09-21T15:06:49.664Z,0.68
2022-09-21T15:09:59.623Z,0.88
2022-09-21T15:12:46.450Z,0.75
2022-09-21T15:15:31.368Z,0.65
2022-09-21T15:18:02.730Z,0.80
2022-09-21T15:20:32.145Z,0.60
2022-09-21T15:23:00.706Z,0.70
2022-09-21T15:25:31.931Z,0.75
2022-09-21T15:28:00.135Z,0.70
2022-09-21T15:30:29.304Z,0.80
2022-09-21T15:32:59.140Z,1.02
2022-09-21T15:35:32.487Z,0.68
2022-09-21T15:38:01.011Z,0.90
2022-09-21T15:40:46.955Z,1.10
2022-09-21T15:43:16.785Z,0.70
2022-09-21T15:45:54.684Z,0.93
2022-09-21T15:48:26.482Z,1.15
2022-09-21T15:51:01.021Z,0.70
2022-09-21T15:53:42.615Z,1.00
2022-09-21T15:56:22.893Z,0.93
2022-09-21T15:58:50.133Z,1.00
2022-09-21T16:01:21.407Z,0.90
2022-09-21T16:03:51.978Z,0.85
2022-09-21T16:06:21.700Z,1.05
2022-09-21T16:08:48.540Z,0.95
2022-09-21T16:11:19.834Z,0.80
2022-09-21T16:14:06.039Z,0.90
2022-09-21T16:16:33.206Z,1.10
2022-09-21T16:19:00.100Z,0.88
2022-09-21T16:21:33.885Z,0.80
2022-09-21T16:24:22.257Z,0.70
2022-09-21T16:27:01.099Z,0.98
2022-09-21T16:29:38.854Z,0.90
2022-09-21T16:32:30.913Z,1.20
2022-09-21T16:35:26.879Z,1.05
2022-09-21T16:37:58.570Z,1.58
2022-09-21T16:40:26.853Z,1.20
2022-09-21T16:42:54.170Z,1.00
2022-09-21T16:45:29.592Z,1.30
2022-09-21T16:47:57.517Z,1.20
2022-09-21T16:50:24.448Z,1.02
2022-09-21T16:52:52.324Z,1.30
2022-09-21T16:55:24.461Z,1.63
2022-09-21T16:57:54.894Z,0.93
2022-09-21T17:00:22.353Z,1.50
2022-09-21T17:02:49.394Z,2.33
2022-09-21T17:05:19.191Z,1.10
2022-09-21T17:07:57.428Z,1.30
2022-09-21T17:10:29.112Z,1.20
2022-09-21T17:12:56.410Z,1.40
2022-09-21T17:15:24.189Z,1.35
2022-09-21T17:17:51.280Z,1.30
2022-09-21T17:20:23.293Z,1.40
2022-09-21T17:22:49.851Z,1.60
2022-09-21T17:25:16.428Z,1.50
2022-09-21T17:27:45.079Z,1.38
2022-09-21T17:30:15.646Z,1.60
2022-09-21T17:32:49.950Z,1.60
2022-09-21T17:35:33.403Z,1.50
2022-09-21T17:38:00.222Z,1.73
2022-09-21T17:40:27.342Z,1.65
2022-09-21T17:43:11.839Z,1.48
2022-09-21T17:45:38.632Z,1.83
2022-09-21T17:48:07.605Z,1.55
2022-09-21T17:50:34.346Z,1.63
2022-09-21T17:53:19.877Z,1.77
2022-09-21T17:55:54.371Z,1.60
2022-09-21T17:58:48.702Z,1.38
2022-09-21T18:01:32.065Z,1.48
2022-09-21T18:03:59.294Z,1.53
2022-09-21T18:06:26.684Z,1.40
2022-09-21T18:08:54.115Z,1.60
2022-09-21T18:11:39.119Z,1.83
2022-09-21T18:14:08.843Z,1.80
2022-09-21T18:16:43.215Z,1.70
2022-09-21T18:19:48.190Z,1.77
2022-09-21T18:22:44.764Z,1.50
2022-09-21T18:25:16.075Z,1.80
2022-09-21T18:27:47.960Z,2.03
2022-09-21T18:30:16.648Z,2.00
2022-09-21T18:33:10.617Z,2.22
2022-09-21T18:35:52.908Z,2.30
2022-09-21T18:38:30.052Z,2.10
2022-09-21T18:41:07.520Z,2.40
2022-09-21T18:43:55.366Z,1.88
2022-09-21T18:46:35.004Z,2.40
2022-09-21T18:49:40.818Z,2.03
2022-09-21T18:52:27.365Z,2.13
2022-09-21T18:54:54.094Z,2.17
2022-09-21T18:57:22.939Z,2.05
2022-09-21T18:59:50.184Z,2.15
2022-09-21T19:02:20.246Z,2.22
2022-09-21T19:04:48.832Z,2.13
2022-09-21T19:07:42.130Z,2.13
2022-09-21T19:10:21.464Z,2.03
2022-09-21T19:13:02.894Z,2.30
2022-09-21T19:16:00.412Z,2.65
2022-09-21T19:18:46.158Z,2.10
2022-09-21T19:21:38.347Z,2.35
2022-09-21T19:24:16.986Z,2.67
2022-09-21T19:26:45.002Z,3.25
2022-09-21T19:29:24.728Z,2.92
2022-09-21T19:31:51.469Z,2.17
2022-09-21T19:34:19.660Z,2.20
2022-09-21T19:36:49.993Z,2.50
2022-09-21T19:39:16.932Z,2.10
2022-09-21T19:41:52.078Z,2.72
2022-09-21T19:44:43.367Z,3.05
2022-09-21T19:47:12.978Z,3.20
2022-09-21T19:49:46.121Z,2.67
2022-09-21T19:52:25.334Z,3.42
2022-09-21T19:55:10.482Z,2.55
2022-09-21T19:57:55.786Z,2.92
2022-09-21T20:00:22.766Z,2.60
2022-09-21T20:02:57.287Z,3.00
2022-09-21T20:05:30.765Z,3.35
2022-09-21T20:08:18.961Z,2.67
2022-09-21T20:10:51.472Z,3.08
2022-09-21T20:13:28.299Z,2.72
2022-09-21T20:16:25.031Z,2.72
2022-09-21T20:19:01.460Z,3.08
2022-09-21T20:21:42.272Z,3.05
2022-09-21T20:24:42.130Z,3.10
2022-09-21T20:27:36.054Z,3.70
2022-09-21T20:30:05.919Z,3.63
2022-09-21T20:32:33.982Z,3.08
2022-09-21T20:35:00.536Z,4.30
2022-09-21T20:37:27.341Z,3.65
2022-09-21T20:39:54.466Z,3.80
2022-09-21T20:42:26.740Z,3.75
2022-09-21T20:44:53.952Z,3.47
2022-09-21T20:47:20.851Z,3.40
2022-09-21T20:49:48.355Z,3.85
2022-09-21T20:52:17.322Z,3.15
2022-09-21T20:54:48.945Z,4.40
2022-09-21T20:57:16.638Z,3.75
2022-09-21T20:59:44.462Z,2.97
2022-09-21T21:02:16.409Z,3.00
2022-09-21T21:04:43.025Z,3.15
2022-09-21T21:07:10.038Z,3.25
2022-09-21T21:09:36.684Z,3.53
2022-09-21T21:12:03.575Z,2.65
2022-09-21T21:14:30.202Z,3.33
2022-09-21T21:16:56.900Z,2.90
2022-09-21T21:19:23.686Z,2.88
2022-09-21T21:21:50.257Z,2.67
2022-09-21T21:24:35.705Z,2.90
2022-09-21T21:27:03.238Z,3.13
2022-09-21T21:29:31.868Z,2.92
2022-09-21T21:31:59.517Z,3.10
2022-09-21T21:34:26.559Z,4.55
2022-09-21T21:36:53.478Z,4.90
2022-09-21T21:39:20.070Z,3.33
2022-09-21T21:41:46.992Z,3.03
2022-09-21T21:44:13.613Z,3.47
2022-09-21T21:46:40.283Z,3.00
2022-09-21T21:49:07.002Z,2.95
2022-09-21T21:51:33.715Z,2.67
2022-09-21T21:54:00.406Z,3.00
2022-09-21T21:56:27.060Z,3.08
2022-09-21T21:58:54.673Z,2.80
2022-09-21T22:01:24.578Z,3.17
2022-09-21T22:03:56.726Z,2.90
2022-09-21T22:06:24.067Z,2.97
2022-09-21T22:08:51.550Z,3.38
2022-09-21T22:11:19.871Z,2.95
2022-09-21T22:13:47.299Z,2.58
2022-09-21T22:16:16.189Z,3.08
2022-09-21T22:18:43.731Z,3.60
2022-09-21T22:21:11.590Z,3.15
2022-09-21T22:23:38.851Z,3.40
2022-09-21T22:26:08.825Z,3.55
2022-09-21T22:28:37.619Z,3.28
2022-09-21T22:31:09.780Z,3.47
2022-09-21T22:33:37.446Z,3.30
2022-09-21T22:36:06.384Z,3.15
2022-09-21T22:38:34.088Z,3.70
2022-09-21T22:41:05.869Z,3.95
2022-09-21T22:43:33.372Z,3.53
2022-09-21T22:46:00.264Z,3.67
2022-09-21T22:48:27.308Z,3.53
2022-09-21T22:50:54.573Z,3.38
2022-09-21T22:53:22.154Z,3.25
2022-09-21T22:55:49.185Z,3.15
2022-09-21T22:58:15.808Z,3.20
2022-09-21T23:00:42.519Z,2.85
2022-09-21T23:03:09.236Z,3.70
2022-09-21T23:05:35.858Z,4.10
2022-09-21T23:08:02.453Z,3.97
2022-09-21T23:10:29.101Z,3.63
2022-09-21T23:12:55.720Z,3.30
2022-09-21T23:15:22.291Z,3.90
2022-09-21T23:17:49.278Z,3.80
2022-09-21T23:20:17.123Z,3.42
2022-09-21T23:22:43.935Z,3.63
2022-09-21T23:25:10.594Z,3.30
2022-09-21T23:27:37.185Z,3.40
2022-09-21T23:30:04.138Z,3.83
2022-09-21T23:32:30.968Z,3.45
2022-09-21T23:34:57.562Z,3.55
2022-09-21T23:37:24.132Z,3.28
2022-09-21T23:39:50.702Z,3.47
2022-09-21T23:42:17.303Z,3.25
2022-09-21T23:44:43.852Z,3.42
2022-09-21T23:47:10.474Z,2.90
2022-09-21T23:49:37.130Z,3.50
2022-09-21T23:52:03.699Z,3.78
2022-09-21T23:54:30.305Z,3.30
2022-09-21T23:56:57.019Z,3.97
2022-09-21T23:59:23.601Z,3.28
